sensor_id;sensor_type;location;lat;lon;timestamp;temperature;humidity
47090;DHT22;32840;52.516;13.294;2022-09-09T00:02:21;17.20;99.90
47090;DHT22;32840;52.516;13.294;2022-09-09T00:08:06;17.10;99.90
47090;DHT22;32840;52.516;13.294;2022-09-09T00:10:58;17.10;99.90
47090;DHT22;32840;52.516;13.294;2022-09-09T00:13:48;17.10;99.90
47090;DHT22;32840;52.516;13.294;2022-09-09T00:16:40;17.10;99.90
47090;DHT22;32840;52.516;13.294;2022-09-09T00:19:37;17.10;99.90
47090;DHT22;32840;52.516;13.294;2022-09-09T00:22:25;17.10;99.90
47090;DHT22;32840;52.516;13.294;2022-09-09T00:28:18;17.00;99.90
47090;DHT22;32840;52.516;13.294;2022-09-09T00:31:16;17.00;99.90
47090;DHT22;32840;52.516;13.294;2022-09-09T00:34:13;17.00;99.90
47090;DHT22;32840;52.516;13.294;2022-09-09T00:36:59;17.00;99.90
47090;DHT22;32840;52.516;13.294;2022-09-09T00:39:48;16.90;99.90
47090;DHT22;32840;52.516;13.294;2022-09-09T00:42:41;16.90;99.90
47090;DHT22;32840;52.516;13.294;2022-09-09T00:49:03;16.90;99.90
47090;DHT22;32840;52.516;13.294;2022-09-09T00:52:52;16.90;99.90
47090;DHT22;32840;52.516;13.294;2022-09-09T00:55:32;16.80;99.90
47090;DHT22;32840;52.516;13.294;2022-09-09T00:58:18;16.90;99.90
47090;DHT22;32840;52.516;13.294;2022-09-09T01:01:11;16.90;99.90
47090;DHT22;32840;52.516;13.294;2022-09-09T01:03:57;16.80;99.90
47090;DHT22;32840;52.516;13.294;2022-09-09T01:06:46;16.80;99.90
47090;DHT22;32840;52.516;13.294;2022-09-09T01:09:55;16.80;99.90
47090;DHT22;32840;52.516;13.294;2022-09-09T01:12:42;16.80;99.90
47090;DHT22;32840;52.516;13.294;2022-09-09T01:15:29;16.80;99.90
47090;DHT22;32840;52.516;13.294;2022-09-09T01:18:20;16.80;99.90
47090;DHT22;32840;52.516;13.294;2022-09-09T01:27:04;16.70;99.90
47090;DHT22;32840;52.516;13.294;2022-09-09T01:29:50;16.70;99.90
47090;DHT22;32840;52.516;13.294;2022-09-09T01:32:44;16.70;99.90
47090;DHT22;32840;52.516;13.294;2022-09-09T01:38:14;16.70;99.90
47090;DHT22;32840;52.516;13.294;2022-09-09T01:41:00;16.70;99.90
47090;DHT22;32840;52.516;13.294;2022-09-09T01:43:45;16.60;99.90
47090;DHT22;32840;52.516;13.294;2022-09-09T01:46:30;16.60;99.90
47090;DHT22;32840;52.516;13.294;2022-09-09T01:49:17;16.60;99.90
47090;DHT22;32840;52.516;13.294;2022-09-09T01:52:02;16.60;99.90
47090;DHT22;32840;52.516;13.294;2022-09-09T01:54:47;16.60;99.90
47090;DHT22;32840;52.516;13.294;2022-09-09T02:04:18;16.60;99.90
47090;DHT22;32840;52.516;13.294;2022-09-09T02:10:16;16.50;99.90
47090;DHT22;32840;52.516;13.294;2022-09-09T02:13:07;16.50;99.90
47090;DHT22;32840;52.516;13.294;2022-09-09T02:16:00;16.50;99.90
47090;DHT22;32840;52.516;13.294;2022-09-09T02:18:57;16.50;99.90
47090;DHT22;32840;52.516;13.294;2022-09-09T02:21:45;16.50;99.90
47090;DHT22;32840;52.516;13.294;2022-09-09T02:24:35;16.50;99.90
47090;DHT22;32840;52.516;13.294;2022-09-09T02:27:20;16.40;99.90
47090;DHT22;32840;52.516;13.294;2022-09-09T02:30:06;16.40;99.90
47090;DHT22;32840;52.516;13.294;2022-09-09T02:32:54;16.40;99.90
47090;DHT22;32840;52.516;13.294;2022-09-09T02:35:44;16.40;99.90
47090;DHT22;32840;52.516;13.294;2022-09-09T02:38:33;16.40;99.90
47090;DHT22;32840;52.516;13.294;2022-09-09T02:41:24;16.40;99.90
47090;DHT22;32840;52.516;13.294;2022-09-09T02:44:12;16.30;99.90
47090;DHT22;32840;52.516;13.294;2022-09-09T02:52:59;16.30;99.90
47090;DHT22;32840;52.516;13.294;2022-09-09T02:55:56;16.30;99.90
47090;DHT22;32840;52.516;13.294;2022-09-09T02:58:42;16.30;99.90
47090;DHT22;32840;52.516;13.294;2022-09-09T03:01:28;16.20;99.90
47090;DHT22;32840;52.516;13.294;2022-09-09T03:04:13;16.20;99.90
47090;DHT22;32840;52.516;13.294;2022-09-09T03:06:59;16.30;99.90
47090;DHT22;32840;52.516;13.294;2022-09-09T03:09:44;16.20;99.90
47090;DHT22;32840;52.516;13.294;2022-09-09T03:12:29;16.20;99.90
47090;DHT22;32840;52.516;13.294;2022-09-09T03:15:14;16.20;99.90
47090;DHT22;32840;52.516;13.294;2022-09-09T03:17:59;16.20;99.90
47090;DHT22;32840;52.516;13.294;2022-09-09T03:20:46;16.20;99.90
47090;DHT22;32840;52.516;13.294;2022-09-09T03:23:32;16.20;99.90
47090;DHT22;32840;52.516;13.294;2022-09-09T03:26:18;16.20;99.90
47090;DHT22;32840;52.516;13.294;2022-09-09T03:29:04;16.10;99.90
47090;DHT22;32840;52.516;13.294;2022-09-09T03:31:51;16.10;99.90
47090;DHT22;32840;52.516;13.294;2022-09-09T03:34:36;16.10;99.90
47090;DHT22;32840;52.516;13.294;2022-09-09T03:37:23;16.10;99.90
47090;DHT22;32840;52.516;13.294;2022-09-09T03:40:09;16.10;99.90
47090;DHT22;32840;52.516;13.294;2022-09-09T03:42:54;16.10;99.90
47090;DHT22;32840;52.516;13.294;2022-09-09T03:45:39;16.00;99.90
47090;DHT22;32840;52.516;13.294;2022-09-09T03:48:25;16.00;99.90
47090;DHT22;32840;52.516;13.294;2022-09-09T03:51:12;16.00;99.90
47090;DHT22;32840;52.516;13.294;2022-09-09T03:53:57;16.00;99.90
47090;DHT22;32840;52.516;13.294;2022-09-09T03:56:42;16.00;99.90
47090;DHT22;32840;52.516;13.294;2022-09-09T03:59:27;16.00;99.90
47090;DHT22;32840;52.516;13.294;2022-09-09T04:02:12;16.00;99.90
47090;DHT22;32840;52.516;13.294;2022-09-09T04:04:57;16.00;99.90
47090;DHT22;32840;52.516;13.294;2022-09-09T04:07:42;16.00;99.90
47090;DHT22;32840;52.516;13.294;2022-09-09T04:10:27;16.00;99.90
47090;DHT22;32840;52.516;13.294;2022-09-09T04:13:14;16.00;99.90
47090;DHT22;32840;52.516;13.294;2022-09-09T04:16:01;16.00;99.90
47090;DHT22;32840;52.516;13.294;2022-09-09T04:18:46;15.90;99.90
47090;DHT22;32840;52.516;13.294;2022-09-09T04:21:31;15.90;99.90
47090;DHT22;32840;52.516;13.294;2022-09-09T04:24:16;15.90;99.90
47090;DHT22;32840;52.516;13.294;2022-09-09T04:27:01;15.90;99.90
47090;DHT22;32840;52.516;13.294;2022-09-09T04:29:46;15.90;99.90
47090;DHT22;32840;52.516;13.294;2022-09-09T04:32:33;15.90;99.90
47090;DHT22;32840;52.516;13.294;2022-09-09T04:35:18;15.90;99.90
47090;DHT22;32840;52.516;13.294;2022-09-09T04:38:04;15.90;99.90
47090;DHT22;32840;52.516;13.294;2022-09-09T04:40:51;15.90;99.90
47090;DHT22;32840;52.516;13.294;2022-09-09T04:43:37;15.90;99.90
47090;DHT22;32840;52.516;13.294;2022-09-09T04:46:22;15.90;99.90
47090;DHT22;32840;52.516;13.294;2022-09-09T04:49:07;15.90;99.90
47090;DHT22;32840;52.516;13.294;2022-09-09T04:51:52;15.90;99.90
47090;DHT22;32840;52.516;13.294;2022-09-09T04:54:37;15.90;99.90
47090;DHT22;32840;52.516;13.294;2022-09-09T04:57:22;15.80;99.90
47090;DHT22;32840;52.516;13.294;2022-09-09T05:00:08;15.90;99.90
47090;DHT22;32840;52.516;13.294;2022-09-09T05:02:54;15.90;99.90
47090;DHT22;32840;52.516;13.294;2022-09-09T05:05:39;15.90;99.90
47090;DHT22;32840;52.516;13.294;2022-09-09T05:08:24;15.90;99.90
47090;DHT22;32840;52.516;13.294;2022-09-09T05:11:20;15.90;99.90
47090;DHT22;32840;52.516;13.294;2022-09-09T05:14:05;15.90;99.90
47090;DHT22;32840;52.516;13.294;2022-09-09T05:16:49;15.90;99.90
47090;DHT22;32840;52.516;13.294;2022-09-09T05:19:34;16.00;99.90
47090;DHT22;32840;52.516;13.294;2022-09-09T05:22:20;16.00;99.90
47090;DHT22;32840;52.516;13.294;2022-09-09T05:25:06;16.00;99.90
47090;DHT22;32840;52.516;13.294;2022-09-09T05:27:52;16.00;99.90
47090;DHT22;32840;52.516;13.294;2022-09-09T05:30:38;16.10;99.90
47090;DHT22;32840;52.516;13.294;2022-09-09T05:33:24;16.10;99.90
47090;DHT22;32840;52.516;13.294;2022-09-09T05:36:18;16.10;99.90
47090;DHT22;32840;52.516;13.294;2022-09-09T05:39:04;16.10;99.90
47090;DHT22;32840;52.516;13.294;2022-09-09T05:41:48;16.10;99.90
47090;DHT22;32840;52.516;13.294;2022-09-09T05:44:33;16.10;99.90
47090;DHT22;32840;52.516;13.294;2022-09-09T05:47:18;16.10;99.90
47090;DHT22;32840;52.516;13.294;2022-09-09T05:50:04;16.10;99.90
47090;DHT22;32840;52.516;13.294;2022-09-09T05:52:48;16.10;99.90
47090;DHT22;32840;52.516;13.294;2022-09-09T05:55:34;16.10;99.90
47090;DHT22;32840;52.516;13.294;2022-09-09T05:58:19;16.10;99.90
47090;DHT22;32840;52.516;13.294;2022-09-09T06:01:05;16.10;99.90
47090;DHT22;32840;52.516;13.294;2022-09-09T06:03:51;16.10;99.90
47090;DHT22;32840;52.516;13.294;2022-09-09T06:06:37;16.10;99.90
47090;DHT22;32840;52.516;13.294;2022-09-09T06:09:24;16.10;99.90
47090;DHT22;32840;52.516;13.294;2022-09-09T06:12:09;16.20;99.90
47090;DHT22;32840;52.516;13.294;2022-09-09T06:14:53;16.20;99.90
47090;DHT22;32840;52.516;13.294;2022-09-09T06:17:38;16.20;99.90
47090;DHT22;32840;52.516;13.294;2022-09-09T06:20:23;16.30;99.90
47090;DHT22;32840;52.516;13.294;2022-09-09T06:23:09;16.30;99.90
47090;DHT22;32840;52.516;13.294;2022-09-09T06:26:11;16.30;99.90
47090;DHT22;32840;52.516;13.294;2022-09-09T06:28:56;16.40;99.90
47090;DHT22;32840;52.516;13.294;2022-09-09T06:31:42;16.30;99.90
47090;DHT22;32840;52.516;13.294;2022-09-09T06:34:27;16.40;99.90
47090;DHT22;32840;52.516;13.294;2022-09-09T06:37:12;16.30;99.90
47090;DHT22;32840;52.516;13.294;2022-09-09T06:39:57;16.40;99.90
47090;DHT22;32840;52.516;13.294;2022-09-09T06:42:42;16.40;99.90
47090;DHT22;32840;52.516;13.294;2022-09-09T06:45:28;16.40;99.90
47090;DHT22;32840;52.516;13.294;2022-09-09T06:48:13;16.40;99.90
47090;DHT22;32840;52.516;13.294;2022-09-09T06:51:04;16.50;99.90
47090;DHT22;32840;52.516;13.294;2022-09-09T06:53:50;16.60;99.90
47090;DHT22;32840;52.516;13.294;2022-09-09T06:56:38;16.70;99.90
47090;DHT22;32840;52.516;13.294;2022-09-09T06:59:24;16.80;99.90
47090;DHT22;32840;52.516;13.294;2022-09-09T07:02:09;16.80;99.90
47090;DHT22;32840;52.516;13.294;2022-09-09T07:04:54;16.90;99.90
47090;DHT22;32840;52.516;13.294;2022-09-09T07:07:39;17.00;99.90
47090;DHT22;32840;52.516;13.294;2022-09-09T07:10:24;17.10;99.90
47090;DHT22;32840;52.516;13.294;2022-09-09T07:13:09;17.10;99.90
47090;DHT22;32840;52.516;13.294;2022-09-09T07:15:54;17.10;99.90
47090;DHT22;32840;52.516;13.294;2022-09-09T07:18:40;17.20;99.90
47090;DHT22;32840;52.516;13.294;2022-09-09T07:21:27;17.30;99.90
47090;DHT22;32840;52.516;13.294;2022-09-09T07:24:12;17.40;99.90
47090;DHT22;32840;52.516;13.294;2022-09-09T07:26:57;17.50;99.90
47090;DHT22;32840;52.516;13.294;2022-09-09T07:29:42;17.60;99.90
47090;DHT22;32840;52.516;13.294;2022-09-09T07:32:26;17.70;99.90
47090;DHT22;32840;52.516;13.294;2022-09-09T07:35:12;17.80;99.90
47090;DHT22;32840;52.516;13.294;2022-09-09T07:37:57;17.90;99.90
47090;DHT22;32840;52.516;13.294;2022-09-09T07:40:42;18.10;99.90
47090;DHT22;32840;52.516;13.294;2022-09-09T07:43:28;18.20;99.90
47090;DHT22;32840;52.516;13.294;2022-09-09T07:46:14;18.30;99.90
47090;DHT22;32840;52.516;13.294;2022-09-09T07:48:59;18.50;99.90
47090;DHT22;32840;52.516;13.294;2022-09-09T07:51:46;18.60;99.90
47090;DHT22;32840;52.516;13.294;2022-09-09T07:54:32;18.80;99.90
47090;DHT22;32840;52.516;13.294;2022-09-09T07:57:17;18.80;99.90
47090;DHT22;32840;52.516;13.294;2022-09-09T08:00:03;19.00;99.90
47090;DHT22;32840;52.516;13.294;2022-09-09T08:02:48;19.20;99.90
47090;DHT22;32840;52.516;13.294;2022-09-09T08:05:34;19.40;99.90
47090;DHT22;32840;52.516;13.294;2022-09-09T08:08:19;19.60;99.90
47090;DHT22;32840;52.516;13.294;2022-09-09T08:11:07;19.80;99.90
47090;DHT22;32840;52.516;13.294;2022-09-09T08:13:52;20.10;99.90
47090;DHT22;32840;52.516;13.294;2022-09-09T08:16:40;20.30;99.90
47090;DHT22;32840;52.516;13.294;2022-09-09T08:19:25;20.50;99.90
47090;DHT22;32840;52.516;13.294;2022-09-09T08:22:10;20.70;99.90
47090;DHT22;32840;52.516;13.294;2022-09-09T08:24:55;20.70;99.90
47090;DHT22;32840;52.516;13.294;2022-09-09T08:27:40;20.60;99.90
47090;DHT22;32840;52.516;13.294;2022-09-09T08:30:25;20.40;99.90
47090;DHT22;32840;52.516;13.294;2022-09-09T08:33:10;20.30;99.90
47090;DHT22;32840;52.516;13.294;2022-09-09T08:35:55;20.30;99.90
47090;DHT22;32840;52.516;13.294;2022-09-09T08:38:41;20.30;99.90
47090;DHT22;32840;52.516;13.294;2022-09-09T08:56:17;20.20;99.90
47090;DHT22;32840;52.516;13.294;2022-09-09T08:59:03;20.20;99.90
47090;DHT22;32840;52.516;13.294;2022-09-09T09:02:16;20.20;99.90
47090;DHT22;32840;52.516;13.294;2022-09-09T09:05:15;20.20;99.90
47090;DHT22;32840;52.516;13.294;2022-09-09T09:08:28;20.20;99.90
47090;DHT22;32840;52.516;13.294;2022-09-09T09:11:15;20.30;99.90
47090;DHT22;32840;52.516;13.294;2022-09-09T09:14:03;20.30;99.90
47090;DHT22;32840;52.516;13.294;2022-09-09T09:17:03;20.40;99.90
47090;DHT22;32840;52.516;13.294;2022-09-09T09:19:49;20.50;99.90
47090;DHT22;32840;52.516;13.294;2022-09-09T09:22:52;20.70;99.90
47090;DHT22;32840;52.516;13.294;2022-09-09T09:25:42;20.80;99.90
47090;DHT22;32840;52.516;13.294;2022-09-09T09:28:30;21.00;99.90
47090;DHT22;32840;52.516;13.294;2022-09-09T09:31:18;21.30;99.90
47090;DHT22;32840;52.516;13.294;2022-09-09T09:34:04;21.50;99.90
47090;DHT22;32840;52.516;13.294;2022-09-09T09:36:54;21.70;99.90
47090;DHT22;32840;52.516;13.294;2022-09-09T09:39:41;21.70;99.90
47090;DHT22;32840;52.516;13.294;2022-09-09T09:42:26;21.70;99.90
47090;DHT22;32840;52.516;13.294;2022-09-09T09:45:34;21.70;99.90
47090;DHT22;32840;52.516;13.294;2022-09-09T09:48:19;21.70;99.90
47090;DHT22;32840;52.516;13.294;2022-09-09T09:51:10;21.70;99.90
47090;DHT22;32840;52.516;13.294;2022-09-09T09:54:22;21.80;99.90
47090;DHT22;32840;52.516;13.294;2022-09-09T09:57:14;21.90;99.90
47090;DHT22;32840;52.516;13.294;2022-09-09T10:00:17;22.00;99.90
47090;DHT22;32840;52.516;13.294;2022-09-09T10:03:17;22.00;99.90
47090;DHT22;32840;52.516;13.294;2022-09-09T10:06:04;22.10;99.90
47090;DHT22;32840;52.516;13.294;2022-09-09T10:08:49;22.00;99.90
47090;DHT22;32840;52.516;13.294;2022-09-09T10:14:33;21.90;99.90
47090;DHT22;32840;52.516;13.294;2022-09-09T10:17:42;21.80;99.90
47090;DHT22;32840;52.516;13.294;2022-09-09T10:20:45;21.90;99.90
47090;DHT22;32840;52.516;13.294;2022-09-09T10:30:22;22.10;99.90
47090;DHT22;32840;52.516;13.294;2022-09-09T10:33:25;22.10;99.90
47090;DHT22;32840;52.516;13.294;2022-09-09T10:36:25;22.00;99.90
47090;DHT22;32840;52.516;13.294;2022-09-09T10:39:24;22.00;99.90
47090;DHT22;32840;52.516;13.294;2022-09-09T10:42:14;22.20;99.90
47090;DHT22;32840;52.516;13.294;2022-09-09T10:48:05;22.20;99.90
47090;DHT22;32840;52.516;13.294;2022-09-09T10:56:44;21.90;99.90
47090;DHT22;32840;52.516;13.294;2022-09-09T10:59:40;21.90;99.90
47090;DHT22;32840;52.516;13.294;2022-09-09T11:02:31;21.90;99.90
47090;DHT22;32840;52.516;13.294;2022-09-09T11:05:24;22.00;99.90
47090;DHT22;32840;52.516;13.294;2022-09-09T11:08:26;22.10;99.90
47090;DHT22;32840;52.516;13.294;2022-09-09T11:11:27;22.00;99.90
47090;DHT22;32840;52.516;13.294;2022-09-09T11:14:32;22.00;99.90
47090;DHT22;32840;52.516;13.294;2022-09-09T11:17:21;21.90;99.90
47090;DHT22;32840;52.516;13.294;2022-09-09T11:20:11;22.00;99.90
47090;DHT22;32840;52.516;13.294;2022-09-09T11:23:11;22.00;99.90
47090;DHT22;32840;52.516;13.294;2022-09-09T11:26:00;22.10;99.90
47090;DHT22;32840;52.516;13.294;2022-09-09T11:28:56;22.10;99.90
47090;DHT22;32840;52.516;13.294;2022-09-09T11:32:03;22.20;99.90
47090;DHT22;32840;52.516;13.294;2022-09-09T11:41:05;22.30;99.90
47090;DHT22;32840;52.516;13.294;2022-09-09T11:43:52;22.20;99.90
47090;DHT22;32840;52.516;13.294;2022-09-09T11:46:39;22.20;99.90
47090;DHT22;32840;52.516;13.294;2022-09-09T11:49:40;22.30;99.90
47090;DHT22;32840;52.516;13.294;2022-09-09T11:52:40;22.40;99.90
47090;DHT22;32840;52.516;13.294;2022-09-09T11:58:16;22.60;99.90
47090;DHT22;32840;52.516;13.294;2022-09-09T12:01:16;22.70;99.90
47090;DHT22;32840;52.516;13.294;2022-09-09T12:04:26;22.70;99.90
47090;DHT22;32840;52.516;13.294;2022-09-09T12:07:33;22.80;99.90
47090;DHT22;32840;52.516;13.294;2022-09-09T12:10:33;22.80;99.90
47090;DHT22;32840;52.516;13.294;2022-09-09T12:13:21;22.80;99.90
47090;DHT22;32840;52.516;13.294;2022-09-09T12:16:28;22.80;99.90
47090;DHT22;32840;52.516;13.294;2022-09-09T12:19:20;22.80;99.90
47090;DHT22;32840;52.516;13.294;2022-09-09T12:22:27;22.80;99.90
47090;DHT22;32840;52.516;13.294;2022-09-09T12:25:57;22.70;99.90
47090;DHT22;32840;52.516;13.294;2022-09-09T12:29:14;22.80;99.90
47090;DHT22;32840;52.516;13.294;2022-09-09T12:32:10;22.80;99.90
47090;DHT22;32840;52.516;13.294;2022-09-09T12:35:00;22.80;99.90
47090;DHT22;32840;52.516;13.294;2022-09-09T12:40:38;22.60;99.90
47090;DHT22;32840;52.516;13.294;2022-09-09T12:43:25;22.60;99.90
47090;DHT22;32840;52.516;13.294;2022-09-09T12:46:21;22.60;99.90
47090;DHT22;32840;52.516;13.294;2022-09-09T12:52:31;22.70;99.90
47090;DHT22;32840;52.516;13.294;2022-09-09T12:55:21;22.70;99.90
47090;DHT22;32840;52.516;13.294;2022-09-09T12:58:07;22.70;99.90
47090;DHT22;32840;52.516;13.294;2022-09-09T13:00:55;22.70;99.70
47090;DHT22;32840;52.516;13.294;2022-09-09T13:03:43;22.70;99.50
47090;DHT22;32840;52.516;13.294;2022-09-09T13:06:32;22.60;99.30
47090;DHT22;32840;52.516;13.294;2022-09-09T13:09:17;22.60;99.60
47090;DHT22;32840;52.516;13.294;2022-09-09T13:12:04;22.60;99.00
47090;DHT22;32840;52.516;13.294;2022-09-09T13:14:55;22.60;98.90
47090;DHT22;32840;52.516;13.294;2022-09-09T13:17:40;22.60;98.90
47090;DHT22;32840;52.516;13.294;2022-09-09T13:20:25;22.60;98.90
47090;DHT22;32840;52.516;13.294;2022-09-09T13:23:11;22.60;99.10
47090;DHT22;32840;52.516;13.294;2022-09-09T13:25:59;22.60;99.50
47090;DHT22;32840;52.516;13.294;2022-09-09T13:28:44;22.60;99.40
47090;DHT22;32840;52.516;13.294;2022-09-09T13:31:34;22.60;99.40
47090;DHT22;32840;52.516;13.294;2022-09-09T13:34:28;22.60;99.70
47090;DHT22;32840;52.516;13.294;2022-09-09T13:37:32;22.60;99.60
47090;DHT22;32840;52.516;13.294;2022-09-09T13:40:20;22.60;99.50
47090;DHT22;32840;52.516;13.294;2022-09-09T13:43:17;22.60;99.60
47090;DHT22;32840;52.516;13.294;2022-09-09T13:52:11;22.80;99.40
47090;DHT22;32840;52.516;13.294;2022-09-09T13:54:56;22.90;99.40
47090;DHT22;32840;52.516;13.294;2022-09-09T13:57:59;23.10;98.90
47090;DHT22;32840;52.516;13.294;2022-09-09T14:00:45;23.10;98.30
47090;DHT22;32840;52.516;13.294;2022-09-09T14:03:31;23.20;98.10
47090;DHT22;32840;52.516;13.294;2022-09-09T14:06:16;23.10;97.80
47090;DHT22;32840;52.516;13.294;2022-09-09T14:09:03;23.20;97.70
47090;DHT22;32840;52.516;13.294;2022-09-09T14:11:48;23.10;97.80
47090;DHT22;32840;52.516;13.294;2022-09-09T14:14:33;23.00;97.60
47090;DHT22;32840;52.516;13.294;2022-09-09T14:17:18;22.90;97.80
47090;DHT22;32840;52.516;13.294;2022-09-09T14:20:03;22.80;97.60
47090;DHT22;32840;52.516;13.294;2022-09-09T14:22:53;22.80;97.60
47090;DHT22;32840;52.516;13.294;2022-09-09T14:25:40;22.70;97.60
47090;DHT22;32840;52.516;13.294;2022-09-09T14:28:25;22.70;98.00
47090;DHT22;32840;52.516;13.294;2022-09-09T14:31:10;22.60;98.40
47090;DHT22;32840;52.516;13.294;2022-09-09T14:33:55;22.60;98.00
47090;DHT22;32840;52.516;13.294;2022-09-09T14:36:40;22.70;98.10
47090;DHT22;32840;52.516;13.294;2022-09-09T14:39:26;22.80;98.10
47090;DHT22;32840;52.516;13.294;2022-09-09T14:42:11;22.80;98.20
47090;DHT22;32840;52.516;13.294;2022-09-09T14:44:56;22.80;97.90
47090;DHT22;32840;52.516;13.294;2022-09-09T14:47:41;22.70;97.80
47090;DHT22;32840;52.516;13.294;2022-09-09T14:50:25;22.60;98.40
47090;DHT22;32840;52.516;13.294;2022-09-09T14:53:10;22.60;98.70
47090;DHT22;32840;52.516;13.294;2022-09-09T14:56:06;22.60;97.30
47090;DHT22;32840;52.516;13.294;2022-09-09T14:58:54;22.60;97.80
47090;DHT22;32840;52.516;13.294;2022-09-09T15:01:39;22.60;97.80
47090;DHT22;32840;52.516;13.294;2022-09-09T15:04:24;22.60;97.80
47090;DHT22;32840;52.516;13.294;2022-09-09T15:07:09;22.60;97.80
47090;DHT22;32840;52.516;13.294;2022-09-09T15:09:55;22.70;97.80
47090;DHT22;32840;52.516;13.294;2022-09-09T15:12:40;22.70;98.30
47090;DHT22;32840;52.516;13.294;2022-09-09T15:15:26;22.70;98.50
47090;DHT22;32840;52.516;13.294;2022-09-09T15:18:11;22.80;98.60
47090;DHT22;32840;52.516;13.294;2022-09-09T15:20:57;22.80;98.90
47090;DHT22;32840;52.516;13.294;2022-09-09T15:23:43;22.80;98.90
47090;DHT22;32840;52.516;13.294;2022-09-09T15:26:28;22.70;98.70
47090;DHT22;32840;52.516;13.294;2022-09-09T15:29:14;22.60;98.60
47090;DHT22;32840;52.516;13.294;2022-09-09T15:31:59;22.50;98.90
47090;DHT22;32840;52.516;13.294;2022-09-09T15:34:44;22.40;99.30
47090;DHT22;32840;52.516;13.294;2022-09-09T15:37:29;22.30;99.80
47090;DHT22;32840;52.516;13.294;2022-09-09T15:40:14;22.30;99.60
47090;DHT22;32840;52.516;13.294;2022-09-09T15:42:59;22.30;99.40
47090;DHT22;32840;52.516;13.294;2022-09-09T15:45:46;22.20;99.30
47090;DHT22;32840;52.516;13.294;2022-09-09T15:48:33;22.20;99.90
47090;DHT22;32840;52.516;13.294;2022-09-09T15:51:18;22.10;99.90
47090;DHT22;32840;52.516;13.294;2022-09-09T15:54:03;22.10;99.90
47090;DHT22;32840;52.516;13.294;2022-09-09T15:56:54;22.00;99.90
47090;DHT22;32840;52.516;13.294;2022-09-09T15:59:40;21.90;99.90
47090;DHT22;32840;52.516;13.294;2022-09-09T16:02:25;21.90;99.90
47090;DHT22;32840;52.516;13.294;2022-09-09T16:05:10;21.80;99.90
47090;DHT22;32840;52.516;13.294;2022-09-09T16:07:55;21.80;99.90
47090;DHT22;32840;52.516;13.294;2022-09-09T16:10:39;21.80;99.90
47090;DHT22;32840;52.516;13.294;2022-09-09T16:13:24;21.70;99.90
47090;DHT22;32840;52.516;13.294;2022-09-09T16:16:14;21.80;99.90
47090;DHT22;32840;52.516;13.294;2022-09-09T16:19:03;21.70;99.90
47090;DHT22;32840;52.516;13.294;2022-09-09T16:21:49;21.70;99.90
47090;DHT22;32840;52.516;13.294;2022-09-09T16:24:34;21.70;99.90
47090;DHT22;32840;52.516;13.294;2022-09-09T16:27:19;21.70;99.90
47090;DHT22;32840;52.516;13.294;2022-09-09T16:30:04;21.70;99.90
47090;DHT22;32840;52.516;13.294;2022-09-09T16:32:49;21.80;99.90
47090;DHT22;32840;52.516;13.294;2022-09-09T16:35:36;21.80;99.90
47090;DHT22;32840;52.516;13.294;2022-09-09T16:38:22;21.80;99.90
47090;DHT22;32840;52.516;13.294;2022-09-09T16:41:08;21.80;99.90
47090;DHT22;32840;52.516;13.294;2022-09-09T16:43:55;21.80;99.90
47090;DHT22;32840;52.516;13.294;2022-09-09T16:46:41;21.80;99.90
47090;DHT22;32840;52.516;13.294;2022-09-09T16:49:27;21.80;99.90
47090;DHT22;32840;52.516;13.294;2022-09-09T16:52:12;21.80;99.90
47090;DHT22;32840;52.516;13.294;2022-09-09T16:54:57;21.70;99.90
47090;DHT22;32840;52.516;13.294;2022-09-09T16:57:42;21.70;99.90
47090;DHT22;32840;52.516;13.294;2022-09-09T17:00:27;21.70;99.90
47090;DHT22;32840;52.516;13.294;2022-09-09T17:03:13;21.70;99.90
47090;DHT22;32840;52.516;13.294;2022-09-09T17:05:58;21.70;99.90
47090;DHT22;32840;52.516;13.294;2022-09-09T17:08:46;21.60;99.90
47090;DHT22;32840;52.516;13.294;2022-09-09T17:11:33;21.60;99.90
47090;DHT22;32840;52.516;13.294;2022-09-09T17:14:20;21.50;99.90
47090;DHT22;32840;52.516;13.294;2022-09-09T17:17:05;21.40;99.90
47090;DHT22;32840;52.516;13.294;2022-09-09T17:19:50;21.40;99.90
47090;DHT22;32840;52.516;13.294;2022-09-09T17:22:35;21.30;99.90
47090;DHT22;32840;52.516;13.294;2022-09-09T17:25:20;21.30;99.90
47090;DHT22;32840;52.516;13.294;2022-09-09T17:28:07;21.30;99.90
47090;DHT22;32840;52.516;13.294;2022-09-09T17:30:52;21.20;99.90
47090;DHT22;32840;52.516;13.294;2022-09-09T17:33:39;21.10;99.90
47090;DHT22;32840;52.516;13.294;2022-09-09T17:36:30;21.10;99.90
47090;DHT22;32840;52.516;13.294;2022-09-09T17:39:15;21.10;99.90
47090;DHT22;32840;52.516;13.294;2022-09-09T17:42:00;21.10;99.90
47090;DHT22;32840;52.516;13.294;2022-09-09T17:44:45;21.10;99.90
47090;DHT22;32840;52.516;13.294;2022-09-09T17:47:30;21.00;99.90
47090;DHT22;32840;52.516;13.294;2022-09-09T17:50:15;21.00;99.90
47090;DHT22;32840;52.516;13.294;2022-09-09T17:53:00;21.00;99.90
47090;DHT22;32840;52.516;13.294;2022-09-09T17:55:46;20.90;99.90
47090;DHT22;32840;52.516;13.294;2022-09-09T17:58:32;20.90;99.90
47090;DHT22;32840;52.516;13.294;2022-09-09T18:01:19;20.90;99.90
47090;DHT22;32840;52.516;13.294;2022-09-09T18:04:06;20.90;99.90
47090;DHT22;32840;52.516;13.294;2022-09-09T18:06:52;20.80;99.90
47090;DHT22;32840;52.516;13.294;2022-09-09T18:09:38;20.80;99.90
47090;DHT22;32840;52.516;13.294;2022-09-09T18:12:23;20.70;99.90
47090;DHT22;32840;52.516;13.294;2022-09-09T18:15:08;20.70;99.90
47090;DHT22;32840;52.516;13.294;2022-09-09T18:17:53;20.70;99.90
47090;DHT22;32840;52.516;13.294;2022-09-09T18:20:38;20.60;99.90
47090;DHT22;32840;52.516;13.294;2022-09-09T18:23:23;20.60;99.90
47090;DHT22;32840;52.516;13.294;2022-09-09T18:26:09;20.60;99.90
47090;DHT22;32840;52.516;13.294;2022-09-09T18:28:59;20.60;99.90
47090;DHT22;32840;52.516;13.294;2022-09-09T18:31:45;20.50;99.90
47090;DHT22;32840;52.516;13.294;2022-09-09T18:34:31;20.50;99.90
47090;DHT22;32840;52.516;13.294;2022-09-09T18:37:16;20.50;99.90
47090;DHT22;32840;52.516;13.294;2022-09-09T18:40:02;20.50;99.90
47090;DHT22;32840;52.516;13.294;2022-09-09T18:42:47;20.50;99.90
47090;DHT22;32840;52.516;13.294;2022-09-09T18:45:35;20.40;99.90
47090;DHT22;32840;52.516;13.294;2022-09-09T18:48:22;20.40;99.90
47090;DHT22;32840;52.516;13.294;2022-09-09T18:51:09;20.40;99.90
47090;DHT22;32840;52.516;13.294;2022-09-09T18:54:00;20.30;99.90
47090;DHT22;32840;52.516;13.294;2022-09-09T18:56:45;20.20;99.90